sensor_id;sensor_type;location;lat;lon;timestamp;P1;durP1;ratioP1;P2;durP2;ratioP2
48076;SDS011;33854;57.708;12.008;2023-05-10T00:02:23;4.82;;;2.20;;
48076;SDS011;33854;57.708;12.008;2023-05-10T00:04:49;3.75;;;2.28;;
48076;SDS011;33854;57.708;12.008;2023-05-10T00:07:14;3.03;;;2.40;;
48076;SDS011;33854;57.708;12.008;2023-05-10T00:09:42;2.92;;;2.63;;
48076;SDS011;33854;57.708;12.008;2023-05-10T00:12:08;6.53;;;2.30;;
48076;SDS011;33854;57.708;12.008;2023-05-10T00:14:33;3.80;;;2.27;;
48076;SDS011;33854;57.708;12.008;2023-05-10T00:16:58;4.70;;;2.40;;
48076;SDS011;33854;57.708;12.008;2023-05-10T00:19:24;6.17;;;2.60;;
48076;SDS011;33854;57.708;12.008;2023-05-10T00:21:49;2.30;;;2.10;;
48076;SDS011;33854;57.708;12.008;2023-05-10T00:24:15;2.47;;;2.27;;
48076;SDS011;33854;57.708;12.008;2023-05-10T00:26:40;3.33;;;2.37;;
48076;SDS011;33854;57.708;12.008;2023-05-10T00:29:07;4.32;;;2.40;;
48076;SDS011;33854;57.708;12.008;2023-05-10T00:31:32;6.83;;;2.60;;
48076;SDS011;33854;57.708;12.008;2023-05-10T00:33:58;4.00;;;2.33;;
48076;SDS011;33854;57.708;12.008;2023-05-10T00:36:23;6.13;;;2.70;;
48076;SDS011;33854;57.708;12.008;2023-05-10T00:38:49;4.00;;;2.60;;
48076;SDS011;33854;57.708;12.008;2023-05-10T00:41:14;6.13;;;3.40;;
48076;SDS011;33854;57.708;12.008;2023-05-10T00:43:40;4.00;;;2.50;;
48076;SDS011;33854;57.708;12.008;2023-05-10T00:46:06;3.87;;;2.50;;
48076;SDS011;33854;57.708;12.008;2023-05-10T00:48:32;4.22;;;2.58;;
48076;SDS011;33854;57.708;12.008;2023-05-10T00:50:58;3.78;;;2.45;;
48076;SDS011;33854;57.708;12.008;2023-05-10T00:53:24;4.03;;;2.30;;
48076;SDS011;33854;57.708;12.008;2023-05-10T00:55:49;3.53;;;2.17;;
48076;SDS011;33854;57.708;12.008;2023-05-10T00:58:15;3.97;;;2.13;;
48076;SDS011;33854;57.708;12.008;2023-05-10T01:00:42;3.88;;;2.50;;
48076;SDS011;33854;57.708;12.008;2023-05-10T01:03:11;3.17;;;2.55;;
48076;SDS011;33854;57.708;12.008;2023-05-10T01:05:37;2.63;;;2.40;;
48076;SDS011;33854;57.708;12.008;2023-05-10T01:08:02;2.80;;;2.50;;
48076;SDS011;33854;57.708;12.008;2023-05-10T01:10:28;4.03;;;2.47;;
48076;SDS011;33854;57.708;12.008;2023-05-10T01:12:54;2.83;;;2.60;;
48076;SDS011;33854;57.708;12.008;2023-05-10T01:15:20;5.78;;;2.53;;
48076;SDS011;33854;57.708;12.008;2023-05-10T01:17:46;4.43;;;2.55;;
48076;SDS011;33854;57.708;12.008;2023-05-10T01:20:12;6.72;;;2.60;;
48076;SDS011;33854;57.708;12.008;2023-05-10T01:31:08;5.50;;;2.65;;
48076;SDS011;33854;57.708;12.008;2023-05-10T01:33:59;7.28;;;2.65;;
48076;SDS011;33854;57.708;12.008;2023-05-10T01:38:53;3.42;;;2.20;;
48076;SDS011;33854;57.708;12.008;2023-05-10T01:47:05;6.05;;;3.05;;
48076;SDS011;33854;57.708;12.008;2023-05-10T01:49:38;4.15;;;2.45;;
48076;SDS011;33854;57.708;12.008;2023-05-10T01:52:15;5.10;;;2.53;;
48076;SDS011;33854;57.708;12.008;2023-05-10T01:55:06;5.15;;;2.45;;
48076;SDS011;33854;57.708;12.008;2023-05-10T01:57:35;3.80;;;2.40;;
48076;SDS011;33854;57.708;12.008;2023-05-10T02:00:02;6.00;;;2.75;;
48076;SDS011;33854;57.708;12.008;2023-05-10T02:02:30;3.80;;;2.42;;
48076;SDS011;33854;57.708;12.008;2023-05-10T02:05:02;2.40;;;2.20;;
48076;SDS011;33854;57.708;12.008;2023-05-10T02:07:28;4.28;;;2.47;;
48076;SDS011;33854;57.708;12.008;2023-05-10T02:09:55;5.32;;;2.67;;
48076;SDS011;33854;57.708;12.008;2023-05-10T02:12:22;2.45;;;2.25;;
48076;SDS011;33854;57.708;12.008;2023-05-10T02:14:49;4.63;;;3.05;;
48076;SDS011;33854;57.708;12.008;2023-05-10T02:17:17;2.28;;;2.08;;
48076;SDS011;33854;57.708;12.008;2023-05-10T02:19:44;4.85;;;2.50;;
48076;SDS011;33854;57.708;12.008;2023-05-10T02:22:12;6.47;;;2.67;;
48076;SDS011;33854;57.708;12.008;2023-05-10T02:24:38;4.22;;;2.70;;
48076;SDS011;33854;57.708;12.008;2023-05-10T02:29:31;3.83;;;2.38;;
48076;SDS011;33854;57.708;12.008;2023-05-10T02:31:58;3.13;;;2.55;;
48076;SDS011;33854;57.708;12.008;2023-05-10T02:34:27;3.88;;;2.55;;
48076;SDS011;33854;57.708;12.008;2023-05-10T02:36:54;6.32;;;2.75;;
48076;SDS011;33854;57.708;12.008;2023-05-10T02:39:21;8.70;;;2.50;;
48076;SDS011;33854;57.708;12.008;2023-05-10T02:41:48;2.83;;;2.17;;
48076;SDS011;33854;57.708;12.008;2023-05-10T02:44:15;4.25;;;2.45;;
48076;SDS011;33854;57.708;12.008;2023-05-10T02:46:44;6.38;;;2.60;;
48076;SDS011;33854;57.708;12.008;2023-05-10T02:49:10;5.68;;;2.38;;
48076;SDS011;33854;57.708;12.008;2023-05-10T02:51:37;4.83;;;2.90;;
48076;SDS011;33854;57.708;12.008;2023-05-10T02:54:08;4.72;;;2.60;;
48076;SDS011;33854;57.708;12.008;2023-05-10T02:56:42;3.22;;;2.25;;
48076;SDS011;33854;57.708;12.008;2023-05-10T02:59:12;3.80;;;2.42;;
48076;SDS011;33854;57.708;12.008;2023-05-10T03:01:37;3.60;;;2.47;;
48076;SDS011;33854;57.708;12.008;2023-05-10T03:04:03;8.53;;;2.60;;
48076;SDS011;33854;57.708;12.008;2023-05-10T03:06:29;4.30;;;2.67;;
48076;SDS011;33854;57.708;12.008;2023-05-10T03:08:54;4.83;;;2.53;;
48076;SDS011;33854;57.708;12.008;2023-05-10T03:11:37;6.53;;;3.27;;
48076;SDS011;33854;57.708;12.008;2023-05-10T03:17:14;4.45;;;2.55;;
48076;SDS011;33854;57.708;12.008;2023-05-10T03:19:50;5.60;;;2.50;;
48076;SDS011;33854;57.708;12.008;2023-05-10T03:22:21;4.82;;;2.50;;
48076;SDS011;33854;57.708;12.008;2023-05-10T03:25:10;6.70;;;3.00;;
48076;SDS011;33854;57.708;12.008;2023-05-10T03:27:38;5.70;;;2.70;;
48076;SDS011;33854;57.708;12.008;2023-05-10T03:30:15;3.33;;;2.50;;
48076;SDS011;33854;57.708;12.008;2023-05-10T03:32:41;4.32;;;2.78;;
48076;SDS011;33854;57.708;12.008;2023-05-10T03:35:07;5.03;;;2.60;;
48076;SDS011;33854;57.708;12.008;2023-05-10T03:37:37;4.00;;;2.75;;
48076;SDS011;33854;57.708;12.008;2023-05-10T03:40:03;3.40;;;2.83;;
48076;SDS011;33854;57.708;12.008;2023-05-10T03:42:29;3.28;;;2.60;;
48076;SDS011;33854;57.708;12.008;2023-05-10T03:44:54;5.40;;;2.50;;
48076;SDS011;33854;57.708;12.008;2023-05-10T03:47:20;6.90;;;2.47;;
48076;SDS011;33854;57.708;12.008;2023-05-10T03:49:45;4.93;;;2.40;;
48076;SDS011;33854;57.708;12.008;2023-05-10T03:52:11;4.43;;;2.40;;
48076;SDS011;33854;57.708;12.008;2023-05-10T03:54:36;3.47;;;2.60;;
48076;SDS011;33854;57.708;12.008;2023-05-10T03:57:02;10.97;;;4.13;;
48076;SDS011;33854;57.708;12.008;2023-05-10T03:59:28;2.17;;;2.03;;
48076;SDS011;33854;57.708;12.008;2023-05-10T04:01:53;3.43;;;2.73;;
48076;SDS011;33854;57.708;12.008;2023-05-10T04:04:19;5.93;;;2.70;;
48076;SDS011;33854;57.708;12.008;2023-05-10T04:06:45;10.77;;;5.13;;
48076;SDS011;33854;57.708;12.008;2023-05-10T04:09:11;3.20;;;2.80;;
48076;SDS011;33854;57.708;12.008;2023-05-10T04:11:36;5.90;;;2.93;;
48076;SDS011;33854;57.708;12.008;2023-05-10T04:14:02;7.70;;;3.23;;
48076;SDS011;33854;57.708;12.008;2023-05-10T04:16:28;6.97;;;2.73;;
48076;SDS011;33854;57.708;12.008;2023-05-10T04:18:53;7.67;;;2.97;;
48076;SDS011;33854;57.708;12.008;2023-05-10T04:21:20;5.28;;;2.90;;
48076;SDS011;33854;57.708;12.008;2023-05-10T04:23:46;8.57;;;2.60;;
48076;SDS011;33854;57.708;12.008;2023-05-10T04:26:12;3.87;;;2.60;;
48076;SDS011;33854;57.708;12.008;2023-05-10T04:28:37;7.70;;;3.00;;
48076;SDS011;33854;57.708;12.008;2023-05-10T04:31:04;5.40;;;2.40;;
48076;SDS011;33854;57.708;12.008;2023-05-10T04:33:33;3.67;;;2.90;;
48076;SDS011;33854;57.708;12.008;2023-05-10T04:35:59;4.73;;;3.30;;
48076;SDS011;33854;57.708;12.008;2023-05-10T04:38:24;7.23;;;2.80;;
48076;SDS011;33854;57.708;12.008;2023-05-10T04:40:50;5.13;;;2.53;;
48076;SDS011;33854;57.708;12.008;2023-05-10T04:43:15;7.33;;;2.80;;
48076;SDS011;33854;57.708;12.008;2023-05-10T04:45:41;5.60;;;2.60;;
48076;SDS011;33854;57.708;12.008;2023-05-10T04:48:06;5.70;;;2.87;;
48076;SDS011;33854;57.708;12.008;2023-05-10T04:50:32;3.80;;;2.40;;
48076;SDS011;33854;57.708;12.008;2023-05-10T04:52:58;4.70;;;2.83;;
48076;SDS011;33854;57.708;12.008;2023-05-10T04:55:24;6.03;;;2.80;;
48076;SDS011;33854;57.708;12.008;2023-05-10T04:57:50;7.03;;;2.42;;
48076;SDS011;33854;57.708;12.008;2023-05-10T05:00:15;5.23;;;2.87;;
48076;SDS011;33854;57.708;12.008;2023-05-10T05:02:44;8.05;;;2.63;;
48076;SDS011;33854;57.708;12.008;2023-05-10T05:05:13;4.20;;;3.78;;
48076;SDS011;33854;57.708;12.008;2023-05-10T05:07:38;4.73;;;2.50;;
48076;SDS011;33854;57.708;12.008;2023-05-10T05:10:05;6.57;;;3.20;;
48076;SDS011;33854;57.708;12.008;2023-05-10T05:12:32;3.75;;;2.60;;
48076;SDS011;33854;57.708;12.008;2023-05-10T05:14:57;7.87;;;3.07;;
48076;SDS011;33854;57.708;12.008;2023-05-10T05:17:23;7.77;;;3.17;;
48076;SDS011;33854;57.708;12.008;2023-05-10T05:19:48;6.43;;;2.90;;
48076;SDS011;33854;57.708;12.008;2023-05-10T05:22:13;5.10;;;2.80;;
48076;SDS011;33854;57.708;12.008;2023-05-10T05:24:39;5.50;;;2.90;;
48076;SDS011;33854;57.708;12.008;2023-05-10T05:27:05;3.23;;;2.63;;
48076;SDS011;33854;57.708;12.008;2023-05-10T05:29:31;5.25;;;2.72;;
48076;SDS011;33854;57.708;12.008;2023-05-10T05:31:56;5.77;;;2.43;;
48076;SDS011;33854;57.708;12.008;2023-05-10T05:34:22;7.50;;;3.00;;
48076;SDS011;33854;57.708;12.008;2023-05-10T05:36:47;7.63;;;2.80;;
48076;SDS011;33854;57.708;12.008;2023-05-10T05:39:13;7.03;;;2.83;;
48076;SDS011;33854;57.708;12.008;2023-05-10T05:41:38;4.47;;;2.50;;
48076;SDS011;33854;57.708;12.008;2023-05-10T05:44:04;14.43;;;3.20;;
48076;SDS011;33854;57.708;12.008;2023-05-10T05:46:29;12.97;;;3.00;;
48076;SDS011;33854;57.708;12.008;2023-05-10T05:48:55;13.80;;;3.00;;
48076;SDS011;33854;57.708;12.008;2023-05-10T05:51:20;5.73;;;2.70;;
48076;SDS011;33854;57.708;12.008;2023-05-10T05:53:46;4.77;;;2.67;;
48076;SDS011;33854;57.708;12.008;2023-05-10T05:56:11;6.40;;;3.00;;
48076;SDS011;33854;57.708;12.008;2023-05-10T05:58:37;3.70;;;2.40;;
48076;SDS011;33854;57.708;12.008;2023-05-10T06:01:02;6.57;;;2.03;;
48076;SDS011;33854;57.708;12.008;2023-05-10T06:03:28;4.10;;;2.73;;
48076;SDS011;33854;57.708;12.008;2023-05-10T06:05:53;6.87;;;2.70;;
48076;SDS011;33854;57.708;12.008;2023-05-10T06:08:19;8.83;;;2.63;;
48076;SDS011;33854;57.708;12.008;2023-05-10T06:10:45;14.75;;;3.25;;
48076;SDS011;33854;57.708;12.008;2023-05-10T06:13:10;4.50;;;3.17;;
48076;SDS011;33854;57.708;12.008;2023-05-10T06:15:36;10.20;;;2.83;;
48076;SDS011;33854;57.708;12.008;2023-05-10T06:18:02;17.00;;;2.90;;
48076;SDS011;33854;57.708;12.008;2023-05-10T06:20:28;12.37;;;3.27;;
48076;SDS011;33854;57.708;12.008;2023-05-10T06:22:53;10.57;;;2.67;;
48076;SDS011;33854;57.708;12.008;2023-05-10T06:25:19;8.40;;;3.20;;
48076;SDS011;33854;57.708;12.008;2023-05-10T06:27:44;7.27;;;2.90;;
48076;SDS011;33854;57.708;12.008;2023-05-10T06:30:10;6.03;;;3.03;;
48076;SDS011;33854;57.708;12.008;2023-05-10T06:32:38;7.38;;;3.05;;
48076;SDS011;33854;57.708;12.008;2023-05-10T06:35:03;11.37;;;2.80;;
48076;SDS011;33854;57.708;12.008;2023-05-10T06:37:29;16.63;;;2.90;;
48076;SDS011;33854;57.708;12.008;2023-05-10T06:39:54;8.17;;;2.90;;
48076;SDS011;33854;57.708;12.008;2023-05-10T06:42:20;6.20;;;2.47;;
48076;SDS011;33854;57.708;12.008;2023-05-10T06:44:45;11.87;;;3.93;;
48076;SDS011;33854;57.708;12.008;2023-05-10T06:47:11;4.73;;;2.80;;
48076;SDS011;33854;57.708;12.008;2023-05-10T06:49:36;8.07;;;3.37;;
48076;SDS011;33854;57.708;12.008;2023-05-10T06:52:02;4.50;;;2.70;;
48076;SDS011;33854;57.708;12.008;2023-05-10T06:54:28;6.27;;;2.63;;
48076;SDS011;33854;57.708;12.008;2023-05-10T06:56:53;8.30;;;2.37;;
48076;SDS011;33854;57.708;12.008;2023-05-10T06:59:19;6.37;;;3.07;;
48076;SDS011;33854;57.708;12.008;2023-05-10T07:01:44;5.80;;;2.63;;
48076;SDS011;33854;57.708;12.008;2023-05-10T07:04:10;7.53;;;2.67;;
48076;SDS011;33854;57.708;12.008;2023-05-10T07:06:35;3.87;;;2.37;;
48076;SDS011;33854;57.708;12.008;2023-05-10T07:09:01;5.90;;;2.30;;
48076;SDS011;33854;57.708;12.008;2023-05-10T07:11:26;4.90;;;3.17;;
48076;SDS011;33854;57.708;12.008;2023-05-10T07:13:52;5.90;;;2.77;;
48076;SDS011;33854;57.708;12.008;2023-05-10T07:16:17;7.27;;;2.67;;
48076;SDS011;33854;57.708;12.008;2023-05-10T07:18:43;6.83;;;2.70;;
48076;SDS011;33854;57.708;12.008;2023-05-10T07:21:09;7.70;;;2.70;;
48076;SDS011;33854;57.708;12.008;2023-05-10T07:23:34;7.10;;;2.33;;
48076;SDS011;33854;57.708;12.008;2023-05-10T07:26:00;11.07;;;2.90;;
48076;SDS011;33854;57.708;12.008;2023-05-10T07:28:27;5.93;;;2.50;;
48076;SDS011;33854;57.708;12.008;2023-05-10T07:30:52;5.23;;;2.23;;
48076;SDS011;33854;57.708;12.008;2023-05-10T07:33:18;6.47;;;3.00;;
48076;SDS011;33854;57.708;12.008;2023-05-10T07:35:43;8.90;;;2.80;;
48076;SDS011;33854;57.708;12.008;2023-05-10T07:38:09;8.60;;;2.57;;
48076;SDS011;33854;57.708;12.008;2023-05-10T07:40:36;2.88;;;2.33;;
48076;SDS011;33854;57.708;12.008;2023-05-10T07:43:02;6.45;;;2.63;;
48076;SDS011;33854;57.708;12.008;2023-05-10T07:45:27;2.90;;;2.13;;
48076;SDS011;33854;57.708;12.008;2023-05-10T07:47:53;4.77;;;2.50;;
48076;SDS011;33854;57.708;12.008;2023-05-10T07:50:19;6.33;;;2.33;;
48076;SDS011;33854;57.708;12.008;2023-05-10T07:52:46;9.00;;;2.40;;
48076;SDS011;33854;57.708;12.008;2023-05-10T07:55:11;5.70;;;2.80;;
48076;SDS011;33854;57.708;12.008;2023-05-10T07:57:37;3.70;;;2.50;;
48076;SDS011;33854;57.708;12.008;2023-05-10T08:00:03;3.93;;;2.67;;
48076;SDS011;33854;57.708;12.008;2023-05-10T08:02:28;5.83;;;2.50;;
48076;SDS011;33854;57.708;12.008;2023-05-10T08:04:54;7.47;;;2.53;;
48076;SDS011;33854;57.708;12.008;2023-05-10T08:07:20;6.70;;;3.10;;
48076;SDS011;33854;57.708;12.008;2023-05-10T08:09:46;5.00;;;2.97;;
48076;SDS011;33854;57.708;12.008;2023-05-10T08:12:12;7.83;;;2.70;;
48076;SDS011;33854;57.708;12.008;2023-05-10T08:14:37;3.60;;;2.60;;
48076;SDS011;33854;57.708;12.008;2023-05-10T08:17:03;6.37;;;2.57;;
48076;SDS011;33854;57.708;12.008;2023-05-10T08:19:28;7.65;;;2.50;;
48076;SDS011;33854;57.708;12.008;2023-05-10T08:21:54;6.40;;;2.67;;
48076;SDS011;33854;57.708;12.008;2023-05-10T08:24:20;7.07;;;2.40;;
48076;SDS011;33854;57.708;12.008;2023-05-10T08:26:46;6.35;;;2.85;;
48076;SDS011;33854;57.708;12.008;2023-05-10T08:29:12;10.85;;;2.97;;
48076;SDS011;33854;57.708;12.008;2023-05-10T08:31:38;4.88;;;2.58;;
48076;SDS011;33854;57.708;12.008;2023-05-10T08:34:03;7.03;;;2.90;;
48076;SDS011;33854;57.708;12.008;2023-05-10T08:36:29;7.00;;;3.13;;
48076;SDS011;33854;57.708;12.008;2023-05-10T08:38:54;3.87;;;2.93;;
48076;SDS011;33854;57.708;12.008;2023-05-10T08:41:20;6.70;;;2.97;;
48076;SDS011;33854;57.708;12.008;2023-05-10T08:43:49;3.05;;;2.60;;
48076;SDS011;33854;57.708;12.008;2023-05-10T08:48:44;3.13;;;2.67;;
48076;SDS011;33854;57.708;12.008;2023-05-10T08:51:13;8.45;;;2.58;;
48076;SDS011;33854;57.708;12.008;2023-05-10T08:53:39;4.25;;;2.08;;
48076;SDS011;33854;57.708;12.008;2023-05-10T08:56:05;5.53;;;2.38;;
48076;SDS011;33854;57.708;12.008;2023-05-10T08:58:31;5.30;;;2.70;;
48076;SDS011;33854;57.708;12.008;2023-05-10T09:00:57;5.60;;;3.15;;
48076;SDS011;33854;57.708;12.008;2023-05-10T09:03:23;3.58;;;2.35;;
48076;SDS011;33854;57.708;12.008;2023-05-10T09:05:49;3.30;;;2.77;;
48076;SDS011;33854;57.708;12.008;2023-05-10T09:08:15;4.37;;;2.53;;
48076;SDS011;33854;57.708;12.008;2023-05-10T09:13:08;2.83;;;2.63;;
48076;SDS011;33854;57.708;12.008;2023-05-10T09:15:36;4.00;;;2.70;;
48076;SDS011;33854;57.708;12.008;2023-05-10T09:18:01;6.00;;;3.00;;
48076;SDS011;33854;57.708;12.008;2023-05-10T09:20:27;4.00;;;2.57;;
48076;SDS011;33854;57.708;12.008;2023-05-10T09:22:53;5.23;;;2.70;;
48076;SDS011;33854;57.708;12.008;2023-05-10T09:25:18;4.47;;;2.80;;
48076;SDS011;33854;57.708;12.008;2023-05-10T09:27:45;3.97;;;2.33;;
48076;SDS011;33854;57.708;12.008;2023-05-10T09:30:16;4.43;;;2.55;;
48076;SDS011;33854;57.708;12.008;2023-05-10T09:32:52;4.00;;;2.90;;
48076;SDS011;33854;57.708;12.008;2023-05-10T09:35:19;3.88;;;2.10;;
48076;SDS011;33854;57.708;12.008;2023-05-10T09:37:48;5.68;;;2.35;;
48076;SDS011;33854;57.708;12.008;2023-05-10T09:40:15;6.32;;;2.85;;
48076;SDS011;33854;57.708;12.008;2023-05-10T09:42:42;10.82;;;2.78;;
48076;SDS011;33854;57.708;12.008;2023-05-10T09:45:25;5.00;;;2.70;;
48076;SDS011;33854;57.708;12.008;2023-05-10T09:47:52;7.50;;;2.70;;
48076;SDS011;33854;57.708;12.008;2023-05-10T09:50:18;5.30;;;2.40;;
48076;SDS011;33854;57.708;12.008;2023-05-10T09:52:55;4.85;;;2.28;;
48076;SDS011;33854;57.708;12.008;2023-05-10T09:55:25;6.32;;;2.28;;
48076;SDS011;33854;57.708;12.008;2023-05-10T09:58:03;4.55;;;2.65;;
48076;SDS011;33854;57.708;12.008;2023-05-10T10:00:34;5.30;;;2.33;;
48076;SDS011;33854;57.708;12.008;2023-05-10T10:03:01;5.53;;;3.10;;
48076;SDS011;33854;57.708;12.008;2023-05-10T10:05:33;3.53;;;2.28;;
48076;SDS011;33854;57.708;12.008;2023-05-10T10:08:03;4.20;;;2.38;;
48076;SDS011;33854;57.708;12.008;2023-05-10T10:10:30;10.05;;;2.60;;
48076;SDS011;33854;57.708;12.008;2023-05-10T10:12:57;6.45;;;2.50;;
48076;SDS011;33854;57.708;12.008;2023-05-10T10:15:24;4.60;;;2.55;;
48076;SDS011;33854;57.708;12.008;2023-05-10T10:17:50;5.88;;;2.63;;
48076;SDS011;33854;57.708;12.008;2023-05-10T10:20:17;5.55;;;2.42;;
48076;SDS011;33854;57.708;12.008;2023-05-10T10:22:44;6.03;;;2.22;;
48076;SDS011;33854;57.708;12.008;2023-05-10T10:25:13;4.90;;;2.50;;
48076;SDS011;33854;57.708;12.008;2023-05-10T10:36:12;4.43;;;2.92;;
48076;SDS011;33854;57.708;12.008;2023-05-10T10:44:22;5.18;;;1.98;;
48076;SDS011;33854;57.708;12.008;2023-05-10T10:47:00;5.47;;;2.05;;
48076;SDS011;33854;57.708;12.008;2023-05-10T10:49:27;2.35;;;2.03;;
48076;SDS011;33854;57.708;12.008;2023-05-10T10:57:49;3.40;;;2.47;;
48076;SDS011;33854;57.708;12.008;2023-05-10T11:03:06;5.70;;;2.38;;
48076;SDS011;33854;57.708;12.008;2023-05-10T11:05:40;3.10;;;2.10;;
48076;SDS011;33854;57.708;12.008;2023-05-10T11:08:18;5.75;;;2.78;;
48076;SDS011;33854;57.708;12.008;2023-05-10T11:16:28;9.50;;;2.55;;
48076;SDS011;33854;57.708;12.008;2023-05-10T11:18:54;4.20;;;2.07;;
48076;SDS011;33854;57.708;12.008;2023-05-10T11:21:23;2.13;;;1.88;;
48076;SDS011;33854;57.708;12.008;2023-05-10T11:23:50;7.10;;;2.87;;
48076;SDS011;33854;57.708;12.008;2023-05-10T11:26:17;5.35;;;2.42;;
48076;SDS011;33854;57.708;12.008;2023-05-10T11:28:44;2.45;;;2.17;;
48076;SDS011;33854;57.708;12.008;2023-05-10T11:31:10;2.75;;;2.13;;
48076;SDS011;33854;57.708;12.008;2023-05-10T11:33:44;13.77;;;2.65;;
48076;SDS011;33854;57.708;12.008;2023-05-10T11:36:32;4.53;;;2.30;;
48076;SDS011;33854;57.708;12.008;2023-05-10T11:39:00;3.92;;;2.15;;
48076;SDS011;33854;57.708;12.008;2023-05-10T11:41:27;3.43;;;2.30;;
48076;SDS011;33854;57.708;12.008;2023-05-10T11:43:54;9.32;;;2.83;;
48076;SDS011;33854;57.708;12.008;2023-05-10T11:51:15;3.03;;;2.08;;
48076;SDS011;33854;57.708;12.008;2023-05-10T11:53:46;3.10;;;2.15;;
48076;SDS011;33854;57.708;12.008;2023-05-10T11:56:11;3.23;;;1.70;;
48076;SDS011;33854;57.708;12.008;2023-05-10T11:58:37;3.30;;;2.10;;
48076;SDS011;33854;57.708;12.008;2023-05-10T12:01:04;4.30;;;1.80;;
48076;SDS011;33854;57.708;12.008;2023-05-10T12:03:30;5.32;;;1.70;;
48076;SDS011;33854;57.708;12.008;2023-05-10T12:05:56;8.80;;;2.55;;
48076;SDS011;33854;57.708;12.008;2023-05-10T12:08:26;5.95;;;2.15;;
48076;SDS011;33854;57.708;12.008;2023-05-10T12:11:03;2.85;;;1.70;;
48076;SDS011;33854;57.708;12.008;2023-05-10T12:13:30;2.60;;;1.98;;
48076;SDS011;33854;57.708;12.008;2023-05-10T12:15:58;3.37;;;1.93;;
48076;SDS011;33854;57.708;12.008;2023-05-10T12:18:24;3.22;;;2.05;;
48076;SDS011;33854;57.708;12.008;2023-05-10T12:20:53;6.10;;;2.10;;
48076;SDS011;33854;57.708;12.008;2023-05-10T12:23:19;2.08;;;1.40;;
48076;SDS011;33854;57.708;12.008;2023-05-10T12:25:45;4.60;;;1.75;;
48076;SDS011;33854;57.708;12.008;2023-05-10T12:28:11;5.20;;;1.85;;
48076;SDS011;33854;57.708;12.008;2023-05-10T12:30:36;3.35;;;1.80;;
48076;SDS011;33854;57.708;12.008;2023-05-10T12:33:09;3.65;;;1.70;;
48076;SDS011;33854;57.708;12.008;2023-05-10T12:35:52;3.78;;;1.75;;
48076;SDS011;33854;57.708;12.008;2023-05-10T12:38:24;2.70;;;1.80;;
48076;SDS011;33854;57.708;12.008;2023-05-10T12:40:50;2.25;;;1.67;;
48076;SDS011;33854;57.708;12.008;2023-05-10T12:43:15;3.35;;;1.85;;
48076;SDS011;33854;57.708;12.008;2023-05-10T12:45:41;6.07;;;2.10;;
48076;SDS011;33854;57.708;12.008;2023-05-10T12:48:06;2.37;;;1.70;;
48076;SDS011;33854;57.708;12.008;2023-05-10T12:50:31;6.40;;;1.83;;
48076;SDS011;33854;57.708;12.008;2023-05-10T12:52:57;4.80;;;2.10;;
48076;SDS011;33854;57.708;12.008;2023-05-10T12:55:22;2.83;;;1.95;;
48076;SDS011;33854;57.708;12.008;2023-05-10T12:57:48;4.65;;;2.20;;
48076;SDS011;33854;57.708;12.008;2023-05-10T13:00:13;4.57;;;1.80;;
48076;SDS011;33854;57.708;12.008;2023-05-10T13:02:39;2.63;;;1.80;;
48076;SDS011;33854;57.708;12.008;2023-05-10T13:05:05;6.88;;;2.15;;
48076;SDS011;33854;57.708;12.008;2023-05-10T13:07:30;3.13;;;2.03;;
48076;SDS011;33854;57.708;12.008;2023-05-10T13:09:56;5.80;;;1.65;;
48076;SDS011;33854;57.708;12.008;2023-05-10T13:14:46;2.77;;;1.80;;
48076;SDS011;33854;57.708;12.008;2023-05-10T13:19:37;6.33;;;1.80;;
48076;SDS011;33854;57.708;12.008;2023-05-10T13:26:53;2.33;;;1.90;;
48076;SDS011;33854;57.708;12.008;2023-05-10T13:31:44;5.53;;;1.75;;
48076;SDS011;33854;57.708;12.008;2023-05-10T13:41:27;6.57;;;1.83;;
48076;SDS011;33854;57.708;12.008;2023-05-10T13:48:44;3.40;;;1.73;;
48076;SDS011;33854;57.708;12.008;2023-05-10T13:53:35;2.47;;;1.33;;
48076;SDS011;33854;57.708;12.008;2023-05-10T13:56:00;2.65;;;1.52;;
48076;SDS011;33854;57.708;12.008;2023-05-10T13:58:27;5.18;;;1.70;;
48076;SDS011;33854;57.708;12.008;2023-05-10T14:00:52;4.78;;;1.77;;
48076;SDS011;33854;57.708;12.008;2023-05-10T14:08:10;3.13;;;1.67;;
48076;SDS011;33854;57.708;12.008;2023-05-10T14:10:35;3.20;;;1.17;;
48076;SDS011;33854;57.708;12.008;2023-05-10T14:13:01;5.57;;;1.55;;
48076;SDS011;33854;57.708;12.008;2023-05-10T14:15:28;4.45;;;1.95;;
48076;SDS011;33854;57.708;12.008;2023-05-10T14:17:53;5.38;;;1.70;;
48076;SDS011;33854;57.708;12.008;2023-05-10T14:20:19;2.70;;;1.27;;
48076;SDS011;33854;57.708;12.008;2023-05-10T14:22:44;2.80;;;1.63;;
48076;SDS011;33854;57.708;12.008;2023-05-10T14:25:10;5.10;;;1.60;;
48076;SDS011;33854;57.708;12.008;2023-05-10T14:27:35;1.77;;;1.30;;
48076;SDS011;33854;57.708;12.008;2023-05-10T14:30:01;3.45;;;1.40;;
48076;SDS011;33854;57.708;12.008;2023-05-10T14:32:27;2.53;;;1.73;;
48076;SDS011;33854;57.708;12.008;2023-05-10T14:34:53;7.20;;;1.50;;
48076;SDS011;33854;57.708;12.008;2023-05-10T14:37:18;3.67;;;1.65;;
48076;SDS011;33854;57.708;12.008;2023-05-10T14:39:44;2.85;;;1.50;;
48076;SDS011;33854;57.708;12.008;2023-05-10T14:42:09;2.70;;;1.50;;
48076;SDS011;33854;57.708;12.008;2023-05-10T14:44:35;3.35;;;1.35;;
48076;SDS011;33854;57.708;12.008;2023-05-10T14:47:00;2.97;;;1.50;;
48076;SDS011;33854;57.708;12.008;2023-05-10T14:49:25;2.00;;;1.40;;
48076;SDS011;33854;57.708;12.008;2023-05-10T14:51:51;3.50;;;1.48;;
48076;SDS011;33854;57.708;12.008;2023-05-10T14:54:17;3.72;;;1.50;;
48076;SDS011;33854;57.708;12.008;2023-05-10T14:56:42;5.93;;;1.67;;
48076;SDS011;33854;57.708;12.008;2023-05-10T14:59:07;3.83;;;1.40;;
48076;SDS011;33854;57.708;12.008;2023-05-10T15:01:33;2.67;;;1.17;;
48076;SDS011;33854;57.708;12.008;2023-05-10T15:04:02;3.65;;;1.30;;
48076;SDS011;33854;57.708;12.008;2023-05-10T15:06:31;6.10;;;1.60;;
48076;SDS011;33854;57.708;12.008;2023-05-10T15:08:58;6.45;;;1.52;;
48076;SDS011;33854;57.708;12.008;2023-05-10T15:11:24;2.88;;;1.30;;
48076;SDS011;33854;57.708;12.008;2023-05-10T15:13:49;4.65;;;1.30;;
48076;SDS011;33854;57.708;12.008;2023-05-10T15:16:14;5.18;;;1.48;;
48076;SDS011;33854;57.708;12.008;2023-05-10T15:18:40;2.92;;;1.67;;
48076;SDS011;33854;57.708;12.008;2023-05-10T15:21:05;3.83;;;1.70;;
48076;SDS011;33854;57.708;12.008;2023-05-10T15:23:31;4.55;;;1.60;;
48076;SDS011;33854;57.708;12.008;2023-05-10T15:25:57;3.38;;;1.70;;
48076;SDS011;33854;57.708;12.008;2023-05-10T15:28:22;4.35;;;1.60;;
48076;SDS011;33854;57.708;12.008;2023-05-10T15:30:47;4.60;;;1.30;;
48076;SDS011;33854;57.708;12.008;2023-05-10T15:33:13;3.25;;;1.50;;
48076;SDS011;33854;57.708;12.008;2023-05-10T15:35:39;3.65;;;1.40;;
48076;SDS011;33854;57.708;12.008;2023-05-10T15:38:05;4.25;;;1.92;;
48076;SDS011;33854;57.708;12.008;2023-05-10T15:40:30;2.25;;;2.05;;
48076;SDS011;33854;57.708;12.008;2023-05-10T15:42:56;7.32;;;2.20;;
48076;SDS011;33854;57.708;12.008;2023-05-10T15:45:21;5.03;;;1.90;;
48076;SDS011;33854;57.708;12.008;2023-05-10T15:47:47;9.35;;;2.13;;
48076;SDS011;33854;57.708;12.008;2023-05-10T15:50:13;4.00;;;1.65;;
48076;SDS011;33854;57.708;12.008;2023-05-10T15:52:39;2.63;;;1.50;;
48076;SDS011;33854;57.708;12.008;2023-05-10T15:55:06;6.50;;;2.17;;
48076;SDS011;33854;57.708;12.008;2023-05-10T15:57:37;4.63;;;1.70;;
48076;SDS011;33854;57.708;12.008;2023-05-10T16:00:04;9.45;;;1.80;;
48076;SDS011;33854;57.708;12.008;2023-05-10T16:02:30;3.83;;;1.65;;
48076;SDS011;33854;57.708;12.008;2023-05-10T16:04:55;2.88;;;1.92;;